createdAt,value
2019-02-20T00:01:41.830Z,95221.81
2019-02-20T00:04:11.492Z,95217.56
2019-02-20T00:06:41.063Z,95208.48
2019-02-20T00:09:10.695Z,95214.81
2019-02-20T00:11:40.236Z,95212.70
2019-02-20T00:14:09.828Z,95214.47
2019-02-20T00:16:39.358Z,95220.80
2019-02-20T00:19:08.912Z,95213.17
2019-02-20T00:21:38.649Z,95213.14
2019-02-20T00:24:08.230Z,95213.45
2019-02-20T00:26:37.824Z,95211.95
2019-02-20T00:29:07.398Z,95213.25
2019-02-20T00:31:36.968Z,95211.19
2019-02-20T00:34:08.169Z,95209.53
2019-02-20T00:36:37.990Z,95206.42
2019-02-20T00:39:10.284Z,95203.84
2019-02-20T00:41:39.825Z,95203.31
2019-02-20T00:44:33.195Z,95203.61
2019-02-20T00:47:20.589Z,95204.06
2019-02-20T00:49:51.142Z,95207.48
2019-02-20T00:52:31.155Z,95198.14
2019-02-20T00:55:00.727Z,95193.31
2019-02-20T00:57:30.419Z,95191.50
2019-02-20T01:00:00.329Z,95198.33
2019-02-20T01:02:29.910Z,95190.27
2019-02-20T01:04:59.500Z,95189.86
2019-02-20T01:07:29.129Z,95187.53
2019-02-20T01:09:58.690Z,95185.59
2019-02-20T01:12:28.261Z,95188.49
2019-02-20T01:14:57.875Z,95191.58
2019-02-20T01:17:27.506Z,95189.75
2019-02-20T01:19:57.082Z,95186.86
2019-02-20T01:22:26.680Z,95189.45
2019-02-20T01:24:56.145Z,95184.48
2019-02-20T01:27:25.630Z,95193.88
2019-02-20T01:29:55.127Z,95186.27
2019-02-20T01:32:24.614Z,95185.94
2019-02-20T01:34:54.121Z,95193.88
2019-02-20T01:37:23.652Z,95193.20
2019-02-20T01:39:53.151Z,95191.42
2019-02-20T01:42:22.675Z,95181.37
2019-02-20T01:44:52.215Z,95185.75
2019-02-20T01:47:21.692Z,95182.85
2019-02-20T01:49:51.184Z,95183.97
2019-02-20T01:52:20.673Z,95180.73
2019-02-20T01:54:50.158Z,95184.27
2019-02-20T01:57:19.680Z,95179.73
2019-02-20T01:59:49.238Z,95180.41
2019-02-20T02:02:18.720Z,95178.63
2019-02-20T02:04:48.205Z,95179.44
2019-02-20T02:07:17.705Z,95167.42
2019-02-20T02:09:47.198Z,95163.67
2019-02-20T02:12:16.722Z,95168.37
2019-02-20T02:14:46.261Z,95171.28
2019-02-20T02:17:15.785Z,95166.16
2019-02-20T02:19:45.247Z,95169.05
2019-02-20T02:22:14.727Z,95168.86
2019-02-20T02:24:44.204Z,95176.02
2019-02-20T02:27:13.708Z,95169.86
2019-02-20T02:29:43.229Z,95170.97
2019-02-20T02:32:12.681Z,95170.59
2019-02-20T02:34:42.164Z,95176.50
2019-02-20T02:37:11.651Z,95171.41
2019-02-20T02:39:41.086Z,95169.78
2019-02-20T02:42:10.670Z,95167.55
2019-02-20T02:44:40.160Z,95171.45
2019-02-20T02:47:09.628Z,95173.38
2019-02-20T02:49:39.133Z,95176.94
2019-02-20T02:52:08.646Z,95173.86
2019-02-20T02:54:38.178Z,95176.78
2019-02-20T02:57:07.695Z,95174.34
2019-02-20T02:59:38.922Z,95172.70
2019-02-20T03:02:08.443Z,95172.70
2019-02-20T03:04:37.971Z,95166.45
2019-02-20T03:07:07.466Z,95166.73
2019-02-20T03:09:36.930Z,95168.33
2019-02-20T03:12:06.436Z,95171.22
2019-02-20T03:14:35.891Z,95174.28
2019-02-20T03:17:05.353Z,95177.15
2019-02-20T03:19:34.873Z,95178.80
2019-02-20T03:22:04.400Z,95185.75
2019-02-20T03:24:33.889Z,95184.26
2019-02-20T03:27:03.401Z,95179.91
2019-02-20T03:29:32.869Z,95177.08
2019-02-20T03:32:02.400Z,95180.97
2019-02-20T03:34:31.925Z,95173.66
2019-02-20T03:37:01.494Z,95187.73
2019-02-20T03:39:31.014Z,95188.06
2019-02-20T03:42:00.895Z,95187.88
2019-02-20T03:44:30.373Z,95191.91
2019-02-20T03:46:59.950Z,95194.07
2019-02-20T03:49:29.452Z,95185.41
2019-02-20T03:51:58.972Z,95185.51
2019-02-20T03:54:28.473Z,95184.63
2019-02-20T03:56:57.981Z,95185.83
2019-02-20T03:59:27.527Z,95177.23
2019-02-20T04:01:57.065Z,95183.39
2019-02-20T04:04:26.577Z,95174.46
2019-02-20T04:06:56.044Z,95172.19
2019-02-20T04:09:25.603Z,95169.45
2019-02-20T04:11:55.104Z,95160.19
2019-02-20T04:14:24.666Z,95162.47
2019-02-20T04:16:54.206Z,95167.30
2019-02-20T04:19:23.711Z,95168.55
2019-02-20T04:21:53.183Z,95169.70
2019-02-20T04:24:22.723Z,95166.61
2019-02-20T04:26:52.275Z,95168.30
2019-02-20T04:29:21.813Z,95173.07
2019-02-20T04:31:51.319Z,95164.88
2019-02-20T04:34:20.879Z,95167.38
2019-02-20T04:36:50.534Z,95178.70
2019-02-20T04:39:20.097Z,95172.83
2019-02-20T04:41:49.590Z,95179.59
2019-02-20T04:44:19.074Z,95180.06
2019-02-20T04:46:48.538Z,95177.62
2019-02-20T04:49:18.013Z,95173.84
2019-02-20T04:51:47.509Z,95167.73
2019-02-20T04:54:17.036Z,95168.19
2019-02-20T04:56:46.569Z,95169.82
2019-02-20T04:59:16.149Z,95179.15
2019-02-20T05:01:45.617Z,95180.87
2019-02-20T05:04:15.107Z,95182.61
2019-02-20T05:06:44.650Z,95181.46
2019-02-20T05:09:14.130Z,95177.27
2019-02-20T05:11:43.676Z,95176.78
2019-02-20T05:14:13.187Z,95186.44
2019-02-20T05:16:42.670Z,95180.66
2019-02-20T05:19:12.172Z,95179.97
2019-02-20T05:21:41.759Z,95185.01
2019-02-20T05:24:11.327Z,95187.59
2019-02-20T05:26:40.812Z,95182.78
2019-02-20T05:29:10.314Z,95195.70
2019-02-20T05:31:39.836Z,95196.86
2019-02-20T05:34:09.333Z,95197.68
2019-02-20T05:36:38.864Z,95206.50
2019-02-20T05:39:08.392Z,95211.77
2019-02-20T05:41:37.892Z,95210.80
2019-02-20T05:44:07.360Z,95214.13
2019-02-20T05:46:36.855Z,95217.69
2019-02-20T05:49:06.375Z,95221.94
2019-02-20T05:51:35.959Z,95227.69
2019-02-20T05:54:05.503Z,95232.25
2019-02-20T05:56:34.962Z,95233.41
2019-02-20T05:59:04.460Z,95227.50
2019-02-20T06:01:33.957Z,95228.18
2019-02-20T06:04:03.512Z,95231.81
2019-02-20T06:06:33.023Z,95230.92
2019-02-20T06:09:02.491Z,95236.04
2019-02-20T06:11:32.082Z,95234.77
2019-02-20T06:14:01.628Z,95228.69
2019-02-20T06:16:31.137Z,95232.65
2019-02-20T06:19:00.670Z,95230.08
2019-02-20T06:21:30.284Z,95234.64
2019-02-20T06:23:59.813Z,95236.81
2019-02-20T06:26:29.336Z,95250.55
2019-02-20T06:28:58.863Z,95252.25
2019-02-20T06:31:28.339Z,95260.72
2019-02-20T06:33:57.836Z,95259.89
2019-02-20T06:36:27.325Z,95259.98
2019-02-20T06:38:56.881Z,95261.80
2019-02-20T06:41:26.374Z,95270.66
2019-02-20T06:43:55.908Z,95270.72
2019-02-20T06:46:25.360Z,95269.66
2019-02-20T06:48:54.857Z,95274.71
2019-02-20T06:51:24.383Z,95265.64
2019-02-20T06:53:53.875Z,95271.54
2019-02-20T06:56:23.394Z,95274.81
2019-02-20T06:58:52.910Z,95282.89
2019-02-20T07:01:22.439Z,95284.63
2019-02-20T07:03:51.952Z,95277.77
2019-02-20T07:06:38.306Z,95277.18
2019-02-20T07:09:43.249Z,95272.36
2019-02-20T07:12:25.013Z,95277.93
2019-02-20T07:15:16.417Z,95285.24
2019-02-20T07:18:13.551Z,95281.58
2019-02-20T07:21:15.486Z,95281.65
2019-02-20T07:24:24.999Z,95273.88
2019-02-20T07:27:31.373Z,95277.48
2019-02-20T07:30:05.861Z,95279.19
2019-02-20T07:32:35.307Z,95274.31
2019-02-20T07:35:05.012Z,95278.40
2019-02-20T07:37:34.494Z,95278.91
2019-02-20T07:40:04.333Z,95275.06
2019-02-20T07:42:33.891Z,95273.11
2019-02-20T07:45:03.426Z,95276.40
2019-02-20T07:47:32.924Z,95275.11
2019-02-20T07:50:02.422Z,95279.34
2019-02-20T07:52:31.937Z,95276.91
2019-02-20T07:55:01.429Z,95283.27
2019-02-20T07:57:30.972Z,95278.05
2019-02-20T08:00:00.464Z,95282.30
2019-02-20T08:02:29.985Z,95282.63
2019-02-20T08:04:59.503Z,95277.91
2019-02-20T08:07:29.021Z,95276.94
2019-02-20T08:09:58.586Z,95278.39
2019-02-20T08:12:28.132Z,95271.55
2019-02-20T08:14:57.686Z,95276.40
2019-02-20T08:17:27.176Z,95281.14
2019-02-20T08:19:56.675Z,95272.12
2019-02-20T08:22:26.139Z,95266.41
2019-02-20T08:24:55.660Z,95262.98
2019-02-20T08:27:25.168Z,95265.40
2019-02-20T08:29:54.685Z,95266.22
2019-02-20T08:32:24.233Z,95262.89
2019-02-20T08:34:53.720Z,95263.66
2019-02-20T08:37:23.345Z,95263.09
2019-02-20T08:39:52.837Z,95262.44
2019-02-20T08:42:22.344Z,95252.76
2019-02-20T08:44:51.908Z,95263.97
2019-02-20T08:47:21.468Z,95255.47
2019-02-20T08:49:50.976Z,95263.21
2019-02-20T08:52:20.498Z,95261.70
2019-02-20T08:54:50.046Z,95268.48
2019-02-20T08:57:19.603Z,95260.61
2019-02-20T08:59:49.208Z,95267.87
2019-02-20T09:02:18.731Z,95262.35
2019-02-20T09:04:48.226Z,95265.93
2019-02-20T09:07:17.705Z,95263.96
2019-02-20T09:09:47.263Z,95265.11
2019-02-20T09:12:16.768Z,95260.27
2019-02-20T09:14:46.283Z,95261.27
2019-02-20T09:17:15.818Z,95258.45
2019-02-20T09:19:45.273Z,95256.31
2019-02-20T09:22:14.813Z,95254.88
2019-02-20T09:24:44.336Z,95251.67
2019-02-20T09:27:13.814Z,95253.76
2019-02-20T09:29:43.288Z,95255.98
2019-02-20T09:32:12.780Z,95257.27
2019-02-20T09:34:42.262Z,95249.27
2019-02-20T09:37:11.776Z,95256.27
2019-02-20T09:39:43.162Z,95256.97
2019-02-20T09:42:14.401Z,95267.15
2019-02-20T09:44:48.612Z,95258.03
2019-02-20T09:47:18.938Z,95264.83
2019-02-20T09:49:48.525Z,95256.03
2019-02-20T09:52:18.023Z,95251.78
2019-02-20T09:54:47.570Z,95240.35
2019-02-20T09:57:17.077Z,95238.35
2019-02-20T09:59:46.732Z,95229.45
2019-02-20T10:02:16.223Z,95232.09
2019-02-20T10:04:45.742Z,95238.53
2019-02-20T10:07:15.228Z,95229.12
2019-02-20T10:09:44.707Z,95245.45
2019-02-20T10:12:14.323Z,95226.97
2019-02-20T10:14:43.828Z,95240.23
2019-02-20T10:17:13.325Z,95222.72
2019-02-20T10:19:42.878Z,95219.20
2019-02-20T10:22:12.420Z,95238.53
2019-02-20T10:24:41.898Z,95204.09
2019-02-20T10:27:11.420Z,95199.81
2019-02-20T10:29:40.917Z,95209.33
2019-02-20T10:32:10.446Z,95216.02
2019-02-20T10:34:39.936Z,95195.00
2019-02-20T10:37:09.447Z,95191.75
2019-02-20T10:39:38.968Z,95171.94
2019-02-20T10:42:08.470Z,95161.09
2019-02-20T10:44:38.005Z,95175.36
2019-02-20T10:47:07.498Z,95176.06
2019-02-20T10:49:37.004Z,95171.84
2019-02-20T10:52:06.514Z,95176.59
2019-02-20T10:54:37.780Z,95184.78
2019-02-20T10:57:07.382Z,95167.19
2019-02-20T10:59:36.885Z,95144.64
2019-02-20T11:02:23.756Z,95146.16
2019-02-20T11:04:53.234Z,95155.67
2019-02-20T11:07:22.798Z,95136.75
2019-02-20T11:09:52.304Z,95135.53
2019-02-20T11:12:21.883Z,95156.78
2019-02-20T11:14:51.371Z,95142.42
2019-02-20T11:17:20.894Z,95138.58
2019-02-20T11:19:50.400Z,95151.81
2019-02-20T11:22:20.649Z,95136.13
2019-02-20T11:24:50.378Z,95139.16
2019-02-20T11:27:19.878Z,95147.95
2019-02-20T11:29:49.439Z,95133.17
2019-02-20T11:32:18.957Z,95135.81
2019-02-20T11:34:48.444Z,95158.06
2019-02-20T11:37:17.935Z,95137.61
2019-02-20T11:39:47.462Z,95145.72
2019-02-20T11:42:16.966Z,95140.36
2019-02-20T11:44:47.634Z,95126.98
2019-02-20T11:47:17.218Z,95150.68
2019-02-20T11:49:46.760Z,95135.91
2019-02-20T11:52:16.228Z,95135.20
2019-02-20T11:54:45.729Z,95137.81
2019-02-20T11:57:15.236Z,95127.48
2019-02-20T11:59:44.804Z,95132.83
2019-02-20T12:02:14.325Z,95132.25
2019-02-20T12:04:43.806Z,95126.16
2019-02-20T12:07:13.289Z,95128.92
2019-02-20T12:09:42.788Z,95127.70
2019-02-20T12:12:12.350Z,95118.88
2019-02-20T12:14:41.832Z,95119.97
2019-02-20T12:17:11.333Z,95140.02
2019-02-20T12:19:40.837Z,95124.58
2019-02-20T12:22:10.312Z,95137.00
2019-02-20T12:24:39.778Z,95125.26
2019-02-20T12:27:09.358Z,95127.77
2019-02-20T12:29:38.863Z,95141.13
2019-02-20T12:32:08.358Z,95127.05
2019-02-20T12:34:37.846Z,95128.08
2019-02-20T12:37:07.408Z,95143.77
2019-02-20T12:39:36.887Z,95137.29
2019-02-20T12:42:06.390Z,95130.10
2019-02-20T12:44:35.917Z,95122.91
2019-02-20T12:47:05.420Z,95110.56
2019-02-20T12:49:34.953Z,95118.90
2019-02-20T12:52:06.334Z,95118.25
2019-02-20T12:54:35.833Z,95119.88
2019-02-20T12:57:05.561Z,95106.47
2019-02-20T12:59:36.720Z,95098.03
2019-02-20T13:02:06.869Z,95130.52
2019-02-20T13:04:36.497Z,95126.39
2019-02-20T13:07:06.240Z,95116.77
2019-02-20T13:09:35.854Z,95108.56
2019-02-20T13:12:05.475Z,95114.70
2019-02-20T13:14:34.956Z,95125.11
2019-02-20T13:17:04.460Z,95104.47
2019-02-20T13:19:40.236Z,95119.27
2019-02-20T13:22:19.299Z,95117.20
2019-02-20T13:24:48.769Z,95128.08
2019-02-20T13:27:22.879Z,95131.16
2019-02-20T13:29:49.542Z,95126.80
2019-02-20T13:32:19.029Z,95124.56
2019-02-20T13:34:48.558Z,95124.27
2019-02-20T13:37:18.063Z,95140.78
2019-02-20T13:39:47.601Z,95133.38
2019-02-20T13:42:17.407Z,95126.97
2019-02-20T13:44:46.978Z,95132.94
2019-02-20T13:47:16.524Z,95126.16
2019-02-20T13:49:46.179Z,95117.41
2019-02-20T13:52:15.687Z,95116.39
2019-02-20T13:54:45.304Z,95130.06
2019-02-20T13:57:14.985Z,95134.93
2019-02-20T13:59:44.510Z,95128.34
2019-02-20T14:02:14.046Z,95135.84
2019-02-20T14:04:43.622Z,95134.77
2019-02-20T14:07:13.124Z,95150.80
2019-02-20T14:09:42.629Z,95140.17
2019-02-20T14:12:12.149Z,95160.02
2019-02-20T14:14:41.650Z,95144.22
2019-02-20T14:17:11.178Z,95148.07
2019-02-20T14:19:40.741Z,95144.73
2019-02-20T14:22:10.300Z,95151.75
2019-02-20T14:24:39.826Z,95157.21
2019-02-20T14:27:11.126Z,95155.19
2019-02-20T14:29:40.592Z,95155.39
2019-02-20T14:32:10.139Z,95149.34
2019-02-20T14:34:39.645Z,95162.80
2019-02-20T14:37:09.409Z,95158.75
2019-02-20T14:39:38.954Z,95153.00
2019-02-20T14:42:08.513Z,95156.03
2019-02-20T14:44:39.372Z,95158.66
2019-02-20T14:47:08.912Z,95152.61
2019-02-20T14:49:38.454Z,95155.03
2019-02-20T14:52:07.949Z,95156.87
2019-02-20T14:54:37.449Z,95155.95
2019-02-20T14:57:06.951Z,95152.73
2019-02-20T14:59:37.151Z,95149.69
2019-02-20T15:02:06.635Z,95153.84
2019-02-20T15:04:36.142Z,95154.54
2019-02-20T15:07:05.769Z,95149.58
2019-02-20T15:09:35.277Z,95156.08
2019-02-20T15:12:04.816Z,95153.65
2019-02-20T15:14:34.740Z,95156.27
2019-02-20T15:17:04.312Z,95166.00
2019-02-20T15:19:33.909Z,95155.77
2019-02-20T15:22:03.400Z,95157.59
2019-02-20T15:24:32.908Z,95169.94
2019-02-20T15:27:02.406Z,95163.56
2019-02-20T15:29:32.224Z,95165.07
2019-02-20T15:32:01.858Z,95172.23
2019-02-20T15:34:31.287Z,95168.79
2019-02-20T15:37:00.803Z,95164.92
2019-02-20T15:39:30.295Z,95172.11
2019-02-20T15:41:59.896Z,95168.97
2019-02-20T15:44:29.567Z,95170.37
2019-02-20T15:46:59.088Z,95172.48
2019-02-20T15:49:28.532Z,95170.82
2019-02-20T15:51:58.073Z,95174.06
2019-02-20T15:54:27.577Z,95176.76
2019-02-20T15:56:57.086Z,95170.11
2019-02-20T15:59:26.941Z,95182.42
2019-02-20T16:01:56.441Z,95181.77
2019-02-20T16:04:25.941Z,95188.41
2019-02-20T16:06:55.416Z,95194.45
2019-02-20T16:09:25.057Z,95198.19
2019-02-20T16:11:54.535Z,95197.63
2019-02-20T16:14:24.007Z,95199.05
2019-02-20T16:16:53.536Z,95203.98
2019-02-20T16:19:23.018Z,95205.56
2019-02-20T16:21:52.540Z,95218.97
2019-02-20T16:24:22.071Z,95216.72
2019-02-20T16:26:51.559Z,95223.88
2019-02-20T16:29:21.052Z,95224.88
2019-02-20T16:31:50.590Z,95232.22
2019-02-20T16:34:20.116Z,95230.24
2019-02-20T16:36:49.597Z,95236.42
2019-02-20T16:39:19.107Z,95238.51
2019-02-20T16:41:48.622Z,95243.81
2019-02-20T16:44:18.079Z,95244.45
2019-02-20T16:46:48.443Z,95251.96
2019-02-20T16:49:18.011Z,95261.41
2019-02-20T16:51:47.568Z,95267.52
2019-02-20T16:54:17.049Z,95261.72
2019-02-20T16:56:46.612Z,95268.23
2019-02-20T16:59:16.154Z,95272.02
2019-02-20T17:01:45.823Z,95273.46
2019-02-20T17:04:15.354Z,95277.63
2019-02-20T17:06:44.891Z,95288.05
2019-02-20T17:09:14.918Z,95283.98
2019-02-20T17:11:45.238Z,95292.52
2019-02-20T17:14:14.799Z,95290.33
2019-02-20T17:16:44.544Z,95300.08
2019-02-20T17:19:14.097Z,95299.58
2019-02-20T17:21:43.664Z,95302.38
2019-02-20T17:24:13.255Z,95303.51
2019-02-20T17:26:42.856Z,95308.75
2019-02-20T17:29:12.481Z,95313.03
2019-02-20T17:31:42.222Z,95313.10
2019-02-20T17:34:11.744Z,95311.80
2019-02-20T17:36:41.244Z,95315.23
2019-02-20T17:39:11.225Z,95309.35
2019-02-20T17:41:40.711Z,95318.63
2019-02-20T17:44:10.214Z,95321.11
2019-02-20T17:46:39.877Z,95329.95
2019-02-20T17:49:09.383Z,95327.40
2019-02-20T17:51:38.862Z,95335.29
2019-02-20T17:54:08.437Z,95339.28
2019-02-20T17:56:37.936Z,95344.61
2019-02-20T17:59:07.530Z,95346.27
2019-02-20T18:01:37.030Z,95341.67
2019-02-20T18:04:06.684Z,95343.69
2019-02-20T18:06:36.250Z,95344.23
2019-02-20T18:09:07.290Z,95348.92
2019-02-20T18:11:36.756Z,95350.87
2019-02-20T18:14:06.231Z,95356.83
2019-02-20T18:16:35.765Z,95357.36
2019-02-20T18:19:05.280Z,95358.84
2019-02-20T18:21:34.766Z,95361.86
2019-02-20T18:24:04.399Z,95367.76
2019-02-20T18:26:33.880Z,95367.52
2019-02-20T18:29:03.355Z,95373.63
2019-02-20T18:31:32.812Z,95372.98
2019-02-20T18:34:02.305Z,95374.13
2019-02-20T18:36:31.760Z,95377.47
2019-02-20T18:39:01.663Z,95377.15
2019-02-20T18:41:31.178Z,95377.81
2019-02-20T18:44:00.725Z,95383.22
2019-02-20T18:46:30.232Z,95383.44
2019-02-20T18:48:59.855Z,95391.67
2019-02-20T18:51:29.409Z,95388.02
2019-02-20T18:54:00.005Z,95388.84
2019-02-20T18:56:29.487Z,95397.67
2019-02-20T18:58:58.996Z,95400.02
2019-02-20T19:01:28.506Z,95406.38
2019-02-20T19:03:58.019Z,95404.37
2019-02-20T19:06:27.535Z,95406.05
2019-02-20T19:09:27.730Z,95405.42
2019-02-20T19:12:26.830Z,95414.95
2019-02-20T19:15:31.529Z,95403.52
2019-02-20T19:18:51.103Z,95417.25
2019-02-20T19:21:52.413Z,95419.09
2019-02-20T19:25:01.642Z,95428.08
2019-02-20T19:27:55.096Z,95426.50
2019-02-20T19:30:52.290Z,95429.94
2019-02-20T19:33:54.188Z,95427.82
2019-02-20T19:36:50.954Z,95431.42
2019-02-20T19:40:03.106Z,95425.54
2019-02-20T19:43:02.401Z,95428.20
2019-02-20T19:46:00.567Z,95432.98
2019-02-20T19:49:14.925Z,95430.53
2019-02-20T19:52:32.529Z,95432.83
2019-02-20T19:55:43.121Z,95433.23
2019-02-20T19:58:55.324Z,95439.24
2019-02-20T20:01:51.326Z,95437.94
2019-02-20T20:04:41.274Z,95442.05
2019-02-20T20:07:33.591Z,95444.79
2019-02-20T20:10:19.068Z,95442.05
2019-02-20T20:13:34.684Z,95441.89
2019-02-20T20:17:00.088Z,95440.59
2019-02-20T20:20:16.243Z,95431.48
2019-02-20T20:23:28.124Z,95437.00
2019-02-20T20:26:19.524Z,95432.95
2019-02-20T20:29:45.390Z,95435.05
2019-02-20T20:33:00.581Z,95429.16
2019-02-20T20:36:08.694Z,95436.87
2019-02-20T20:39:09.245Z,95437.20
2019-02-20T20:42:13.993Z,95435.08
2019-02-20T20:45:19.661Z,95440.00
2019-02-20T20:48:27.293Z,95439.52
2019-02-20T20:51:46.605Z,95445.72
2019-02-20T20:54:57.143Z,95451.10
2019-02-20T20:58:25.441Z,95446.04
2019-02-20T21:01:30.967Z,95446.02
2019-02-20T21:04:42.713Z,95455.77
2019-02-20T21:07:51.111Z,95453.48
2019-02-20T21:11:05.748Z,95454.17
2019-02-20T21:14:28.223Z,95463.77
2019-02-20T21:17:24.989Z,95453.19
2019-02-20T21:20:27.039Z,95457.56
2019-02-20T21:23:36.362Z,95457.08
2019-02-20T21:26:43.637Z,95458.51
2019-02-20T21:29:50.001Z,95460.95
2019-02-20T21:32:35.512Z,95462.88
2019-02-20T21:35:19.855Z,95464.67
2019-02-20T21:38:38.147Z,95457.48
2019-02-20T21:41:42.090Z,95455.03
2019-02-20T21:44:20.935Z,95461.19
2019-02-20T21:47:10.697Z,95457.88
2019-02-20T21:50:30.916Z,95460.45
2019-02-20T21:53:41.146Z,95457.33
2019-02-20T21:56:29.555Z,95459.09
2019-02-20T21:59:04.793Z,95466.16
2019-02-20T22:02:02.171Z,95470.84
2019-02-20T22:04:56.939Z,95472.91
2019-02-20T22:08:14.840Z,95466.53
2019-02-20T22:11:15.810Z,95476.45
2019-02-20T22:14:21.103Z,95476.28
2019-02-20T22:17:26.639Z,95485.11
2019-02-20T22:20:39.738Z,95484.41
2019-02-20T22:23:36.989Z,95484.45
2019-02-20T22:26:52.476Z,95483.87
2019-02-20T22:29:37.162Z,95488.77
2019-02-20T22:32:15.538Z,95497.31
2019-02-20T22:35:11.885Z,95498.31
2019-02-20T22:38:17.828Z,95488.98
2019-02-20T22:41:18.379Z,95492.13
2019-02-20T22:44:28.255Z,95491.33
2019-02-20T22:47:08.655Z,95491.81
2019-02-20T22:49:57.266Z,95488.55
2019-02-20T22:52:34.027Z,95491.00
2019-02-20T22:56:05.787Z,95489.08
2019-02-20T22:59:16.325Z,95477.16
2019-02-20T23:02:26.226Z,95479.44
2019-02-20T23:05:42.089Z,95486.02
2019-02-20T23:08:36.089Z,95487.00
2019-02-20T23:11:40.943Z,95480.47
2019-02-20T23:14:55.862Z,95480.31
2019-02-20T23:17:27.085Z,95477.25
2019-02-20T23:19:56.688Z,95487.38
2019-02-20T23:22:26.197Z,95488.67
2019-02-20T23:24:55.673Z,95490.92
2019-02-20T23:27:25.149Z,95490.75
2019-02-20T23:29:54.666Z,95486.34
2019-02-20T23:32:24.161Z,95491.21
2019-02-20T23:34:53.619Z,95485.66
2019-02-20T23:37:23.148Z,95482.59
2019-02-20T23:39:52.640Z,95487.37
2019-02-20T23:42:22.314Z,95485.08
2019-02-20T23:44:51.896Z,95488.68
2019-02-20T23:47:21.431Z,95488.02
2019-02-20T23:49:50.956Z,95493.25
2019-02-20T23:52:20.465Z,95488.97
2019-02-20T23:54:49.955Z,95489.00
2019-02-20T23:57:19.467Z,95490.96
2019-02-20T23:59:49.379Z,95495.20
